Licenciado Gustavo Díaz Ordaz International Airport
MMPR : now visible

Airfield :











YOU CAN JOIN US ON...

 
LOGIN :

Register | Disclaimer

   EN    FR    IT 

 









Legend :    VFR   Marginal VFR   IFR   Intensive IFR   Very Intensive IFR
Visi :
Ceiling :
>= 8 km
>= 3000ft
5 to 8 km
1000 to 3000 ft
1500m to 5 km
500 to 1000 ft
800 to 1500m
200 to 500 ft
< 800m
< 200 ft
Symbols :   Thunderstorms  Fog  Heavy snow  Heavy precipitations  Wind > 20 kt







- Airport Elevation : 23 ft
- IATA code : PVR


MMPR - Licenciado Gustavo Díaz Ordaz International

CURRENT METAR :
  • 201244Z 02004KT 10SM OVC020 19/11 A2990 RMK 8/5// BINOVC

EXPIRED METARs :
  • 201144Z 01004KT 10SM BKN020 OVC070 19/19 A2990 RMK SLP122 57008 953 8/57/
  • 201043Z 36004KT 10SM OVC020 19/19 A2989 RMK 8/5// BINOVC

TAF TAF MMPR
Valid from the 20 at 12:00 until the 21 at 18:00 UTC


201121Z 2012/2118 02005KT P6SM BKN020 TX23/2020Z TN18/2012Z
FM201400 22005KT P6SM SCT020
FM201600 22010KT P6SM SCT020
FM210500 02005KT P6SM BKN020
FM211500 20010KT P6SM SCT020 BKN250
MMFR FIR / North America



MET'MAP, your aeronautical weather chart ! - Copyright ORBIFLY December 2007 - Disclaimer

ORBIFLY MET'MAP TEAM :

Programming & Development : Alexandra Zaïnal
Concept & Development : Baudouin d'Aumeries
Co-Development & Prog : Marc-Olivier Méhu
Technical & hardware support : Manuel Goepfert

Contact : metmap@orbifly.com




SOURCES & CREDITS :

   NOAA       Earth
Advisory